createdAt,value
2023-04-02T00:00:30.106Z,5.60
2023-04-02T00:03:10.521Z,5.00
2023-04-02T00:05:50.874Z,4.80
2023-04-02T00:08:26.579Z,5.00
2023-04-02T00:10:59.530Z,5.00
2023-04-02T00:13:34.233Z,5.20
2023-04-02T00:16:05.112Z,4.70
2023-04-02T00:18:40.730Z,5.50
2023-04-02T00:21:21.672Z,5.20
2023-04-02T00:23:50.624Z,4.40
2023-04-02T00:26:34.176Z,5.00
2023-04-02T00:29:03.453Z,5.00
2023-04-02T00:31:38.453Z,5.00
2023-04-02T00:34:07.837Z,5.00
2023-04-02T00:36:35.999Z,4.40
2023-04-02T00:39:08.533Z,4.70
2023-04-02T00:41:38.791Z,4.30
2023-04-02T00:44:12.413Z,4.80
2023-04-02T00:46:49.624Z,4.80
2023-04-02T00:49:24.910Z,4.70
2023-04-02T00:51:56.550Z,5.00
2023-04-02T00:54:26.760Z,5.50
2023-04-02T00:56:56.422Z,5.30
2023-04-02T00:59:31.455Z,5.00
2023-04-02T01:04:35.141Z,5.50
2023-04-02T01:07:06.605Z,5.60
2023-04-02T01:09:53.335Z,4.90
2023-04-02T01:12:48.975Z,4.90
2023-04-02T01:18:31.435Z,4.70
2023-04-02T01:21:15.201Z,5.10
2023-04-02T01:24:05.633Z,5.40
2023-04-02T01:26:37.037Z,5.80
2023-04-02T01:29:16.621Z,5.20
2023-04-02T01:31:45.378Z,4.70
2023-04-02T01:34:16.519Z,5.10
2023-04-02T01:37:06.432Z,4.80
2023-04-02T01:39:41.930Z,5.30
2023-04-02T01:42:13.358Z,6.30
2023-04-02T01:44:51.312Z,5.40
2023-04-02T01:47:22.562Z,4.70
2023-04-02T01:49:53.322Z,4.70
2023-04-02T01:52:27.139Z,4.80
2023-04-02T01:54:55.394Z,5.10
2023-04-02T01:57:23.723Z,4.20
2023-04-02T01:59:52.604Z,4.80
2023-04-02T02:02:21.976Z,4.50
2023-04-02T02:04:50.692Z,4.50
2023-04-02T02:07:19.405Z,4.90
2023-04-02T02:09:52.278Z,3.90
2023-04-02T02:12:20.840Z,4.70
2023-04-02T02:14:50.100Z,4.80
2023-04-02T02:17:21.668Z,4.80
2023-04-02T02:19:52.149Z,4.90
2023-04-02T02:22:30.123Z,5.70
2023-04-02T02:25:00.565Z,5.00
2023-04-02T02:27:28.948Z,4.90
2023-04-02T02:30:11.581Z,4.20
2023-04-02T02:32:47.243Z,4.50
2023-04-02T02:35:35.999Z,4.80
2023-04-02T02:38:26.305Z,4.50
2023-04-02T02:40:58.101Z,4.30
2023-04-02T02:43:26.693Z,5.20
2023-04-02T02:45:55.582Z,5.00
2023-04-02T02:48:26.058Z,4.50
2023-04-02T02:50:54.603Z,5.10
2023-04-02T02:53:24.038Z,4.90
2023-04-02T02:55:57.354Z,5.60
2023-04-02T02:58:31.419Z,5.30
2023-04-02T03:01:14.843Z,5.50
2023-04-02T03:03:47.569Z,5.20
2023-04-02T03:06:16.918Z,5.30
2023-04-02T03:09:09.463Z,5.10
2023-04-02T03:11:50.905Z,5.50
2023-04-02T03:14:38.360Z,5.80
2023-04-02T03:17:31.575Z,5.10
2023-04-02T03:20:08.573Z,5.70
2023-04-02T03:22:44.325Z,5.50
2023-04-02T03:25:26.846Z,6.00
2023-04-02T03:27:59.681Z,5.10
2023-04-02T03:30:37.903Z,5.40
2023-04-02T03:33:12.969Z,5.10
2023-04-02T03:38:31.869Z,5.70
2023-04-02T03:41:21.087Z,5.30
2023-04-02T03:43:54.843Z,5.90
2023-04-02T03:46:25.694Z,5.10
2023-04-02T03:49:02.714Z,5.80
2023-04-02T03:51:37.103Z,5.40
2023-04-02T03:54:05.578Z,4.80
2023-04-02T03:56:40.087Z,6.00
2023-04-02T03:59:24.724Z,5.50
2023-04-02T04:02:30.957Z,5.60
2023-04-02T04:04:59.616Z,6.50
2023-04-02T04:07:36.941Z,6.40
2023-04-02T04:10:05.997Z,5.20
2023-04-02T04:12:36.185Z,5.10
2023-04-02T04:15:08.866Z,5.40
2023-04-02T04:18:02.721Z,5.00
2023-04-02T04:20:56.694Z,5.50
2023-04-02T04:26:19.565Z,7.70
2023-04-02T04:29:40.808Z,6.40
2023-04-02T04:32:42.893Z,5.90
2023-04-02T04:35:28.749Z,5.10
2023-04-02T04:38:03.908Z,4.90
2023-04-02T04:40:36.629Z,5.40
2023-04-02T04:43:07.869Z,5.60
2023-04-02T04:45:45.214Z,5.50
2023-04-02T04:48:31.674Z,5.40
2023-04-02T04:51:15.542Z,5.30
2023-04-02T04:53:50.982Z,5.60
2023-04-02T04:56:23.589Z,5.80
2023-04-02T04:59:04.180Z,5.50
2023-04-02T05:01:42.980Z,5.20
2023-04-02T05:04:18.710Z,4.70
2023-04-02T05:06:53.136Z,5.20
2023-04-02T05:09:26.078Z,5.10
2023-04-02T05:12:26.949Z,5.20
2023-04-02T05:15:02.245Z,4.10
2023-04-02T05:17:34.256Z,5.10
2023-04-02T05:20:23.689Z,5.50
2023-04-02T05:23:07.083Z,5.20
2023-04-02T05:25:36.511Z,4.90
2023-04-02T05:28:42.074Z,4.90
2023-04-02T05:31:31.309Z,4.50
2023-04-02T05:33:59.726Z,4.70
2023-04-02T05:36:29.377Z,4.70
2023-04-02T05:38:59.455Z,4.80
2023-04-02T05:41:44.720Z,4.70
2023-04-02T05:44:36.348Z,5.00
2023-04-02T05:47:23.891Z,4.50
2023-04-02T05:50:05.823Z,5.10
2023-04-02T05:52:49.112Z,4.40
2023-04-02T05:55:29.481Z,4.80
2023-04-02T05:58:25.614Z,5.60
2023-04-02T06:01:12.968Z,5.50
2023-04-02T06:03:46.582Z,5.60
2023-04-02T06:06:23.033Z,5.60
2023-04-02T06:08:55.805Z,5.70
2023-04-02T06:11:32.314Z,5.30
2023-04-02T06:14:03.421Z,5.30
2023-04-02T06:16:33.515Z,5.30
2023-04-02T06:19:06.537Z,5.50
2023-04-02T06:21:44.567Z,5.70
2023-04-02T06:24:14.472Z,5.80
2023-04-02T06:26:45.136Z,4.60
2023-04-02T06:29:21.807Z,5.30
2023-04-02T06:32:17.137Z,5.10
2023-04-02T06:34:46.054Z,5.50
2023-04-02T06:37:32.662Z,5.10
2023-04-02T06:40:39.378Z,4.90
2023-04-02T06:43:36.592Z,4.70
2023-04-02T06:46:39.711Z,5.80
2023-04-02T06:49:13.708Z,4.40
2023-04-02T06:51:42.550Z,4.80
2023-04-02T06:54:15.720Z,5.00
2023-04-02T06:56:49.765Z,4.50
2023-04-02T06:59:27.232Z,4.80
2023-04-02T07:01:59.027Z,4.80
2023-04-02T07:04:28.379Z,5.10
2023-04-02T07:06:56.950Z,5.10
2023-04-02T07:09:27.432Z,4.20
2023-04-02T07:11:58.779Z,4.70
2023-04-02T07:14:27.845Z,4.80
2023-04-02T07:16:56.163Z,4.10
2023-04-02T07:19:24.504Z,4.50
2023-04-02T07:21:57.233Z,3.90
2023-04-02T07:24:28.093Z,4.30
2023-04-02T07:26:56.694Z,2.90
2023-04-02T07:29:24.830Z,4.10
2023-04-02T07:31:54.081Z,4.20
2023-04-02T07:34:22.449Z,4.10
2023-04-02T07:36:52.685Z,3.70
2023-04-02T07:39:20.924Z,3.30
2023-04-02T07:41:56.464Z,3.60
2023-04-02T07:44:24.596Z,3.60
2023-04-02T07:46:53.075Z,3.10
2023-04-02T07:49:22.957Z,2.90
2023-04-02T07:51:51.692Z,2.80
2023-04-02T07:54:19.989Z,2.70
2023-04-02T07:56:48.244Z,3.60
2023-04-02T07:59:16.508Z,3.10
2023-04-02T08:01:44.742Z,3.50
2023-04-02T08:04:21.423Z,3.60
2023-04-02T08:06:50.734Z,3.20
2023-04-02T08:09:19.932Z,2.80
2023-04-02T08:11:48.597Z,3.00
2023-04-02T08:14:17.348Z,2.90
2023-04-02T08:16:47.657Z,3.00
2023-04-02T08:19:18.266Z,3.40
2023-04-02T08:21:48.169Z,4.00
2023-04-02T08:24:19.944Z,3.10
2023-04-02T08:26:49.465Z,3.30
2023-04-02T08:29:17.668Z,3.30
2023-04-02T08:31:47.260Z,3.00
2023-04-02T08:34:15.545Z,2.90
2023-04-02T08:36:44.119Z,3.20
2023-04-02T08:39:12.825Z,3.60
2023-04-02T08:42:07.194Z,3.30
2023-04-02T08:47:49.434Z,3.40
2023-04-02T08:50:36.912Z,3.40
2023-04-02T08:53:07.181Z,2.80
2023-04-02T08:55:42.830Z,2.90
2023-04-02T08:58:14.089Z,2.60
2023-04-02T09:00:44.195Z,2.30
2023-04-02T09:03:21.986Z,2.40
2023-04-02T09:05:54.290Z,2.70
2023-04-02T09:08:25.570Z,3.20
2023-04-02T09:11:01.018Z,2.70
2023-04-02T09:13:42.062Z,2.60
2023-04-02T09:16:11.366Z,2.90
2023-04-02T09:18:39.805Z,3.20
2023-04-02T09:21:22.544Z,3.10
2023-04-02T09:23:51.046Z,3.40
2023-04-02T09:26:27.737Z,3.40
2023-04-02T09:29:08.150Z,3.10
2023-04-02T09:31:51.079Z,3.60
2023-04-02T09:34:36.213Z,4.60
2023-04-02T09:37:25.456Z,3.60
2023-04-02T09:39:54.203Z,4.00
2023-04-02T09:42:36.380Z,3.60
2023-04-02T09:45:25.176Z,4.10
2023-04-02T09:47:53.496Z,3.60
2023-04-02T09:50:22.020Z,4.30
2023-04-02T09:52:51.496Z,5.60
2023-04-02T09:55:22.432Z,6.40
2023-04-02T09:57:51.271Z,5.00
2023-04-02T10:00:32.426Z,5.80
2023-04-02T10:03:29.957Z,4.20
2023-04-02T10:06:06.554Z,4.10
2023-04-02T10:08:41.583Z,4.40
2023-04-02T10:11:14.872Z,4.10
2023-04-02T10:13:59.255Z,4.50
2023-04-02T10:16:36.125Z,5.50
2023-04-02T10:19:13.441Z,4.60
2023-04-02T10:21:44.293Z,4.30
2023-04-02T10:24:14.036Z,4.40
2023-04-02T10:27:02.032Z,4.10
2023-04-02T10:30:09.123Z,4.30
2023-04-02T10:32:39.477Z,5.00
2023-04-02T10:35:07.904Z,5.00
2023-04-02T10:37:49.702Z,4.70
2023-04-02T10:40:23.476Z,4.60
2023-04-02T10:43:22.715Z,3.90
2023-04-02T10:46:11.471Z,4.50
2023-04-02T10:49:04.183Z,4.60
2023-04-02T10:51:44.112Z,5.50
2023-04-02T10:54:43.922Z,5.40
2023-04-02T10:57:29.525Z,5.80
2023-04-02T11:00:09.915Z,6.60
2023-04-02T11:03:03.031Z,5.20
2023-04-02T11:05:53.683Z,6.10
2023-04-02T11:08:31.781Z,5.70
2023-04-02T11:11:07.973Z,5.30
2023-04-02T11:14:06.425Z,6.30
2023-04-02T11:16:37.763Z,6.30
2023-04-02T11:19:09.486Z,6.50
2023-04-02T11:21:51.095Z,5.70
2023-04-02T11:24:33.092Z,5.20
2023-04-02T11:27:12.273Z,5.80
2023-04-02T11:29:54.288Z,6.30
2023-04-02T11:32:24.235Z,6.20
2023-04-02T11:35:05.771Z,5.60
2023-04-02T11:37:35.155Z,5.40
2023-04-02T11:40:41.669Z,5.30
2023-04-02T11:43:32.919Z,6.20
2023-04-02T11:46:21.402Z,5.90
2023-04-02T11:48:51.466Z,6.60
2023-04-02T11:51:23.123Z,5.80
2023-04-02T11:53:58.448Z,5.70
2023-04-02T11:56:49.077Z,6.20
2023-04-02T11:59:55.104Z,5.90
2023-04-02T12:02:37.420Z,6.50
2023-04-02T12:05:37.428Z,7.20
2023-04-02T12:08:08.946Z,7.00
2023-04-02T12:10:58.537Z,7.50
2023-04-02T12:13:42.019Z,7.30
2023-04-02T12:16:13.198Z,7.70
2023-04-02T12:18:56.665Z,7.10
2023-04-02T12:21:27.610Z,7.30
2023-04-02T12:23:58.118Z,8.80
2023-04-02T12:26:46.666Z,7.60
2023-04-02T12:29:27.501Z,7.20
2023-04-02T12:31:57.049Z,7.50
2023-04-02T12:34:30.085Z,8.00
2023-04-02T12:37:02.820Z,7.70
2023-04-02T12:39:32.492Z,7.70
2023-04-02T12:42:01.542Z,8.00
2023-04-02T12:44:30.553Z,8.80
2023-04-02T12:46:58.649Z,8.80
2023-04-02T12:49:40.293Z,8.90
2023-04-02T12:52:13.410Z,8.20
2023-04-02T12:54:48.731Z,7.00
2023-04-02T12:57:27.262Z,7.80
2023-04-02T12:59:57.613Z,8.20
2023-04-02T13:02:30.053Z,8.60
2023-04-02T13:05:03.377Z,7.70
2023-04-02T13:07:32.820Z,9.20
2023-04-02T13:10:03.123Z,8.30
2023-04-02T13:12:41.400Z,8.60
2023-04-02T13:15:25.086Z,8.30
2023-04-02T13:18:13.639Z,8.70
2023-04-02T13:20:43.508Z,8.00
2023-04-02T13:23:30.023Z,9.40
2023-04-02T13:26:22.367Z,9.50
2023-04-02T13:29:24.487Z,10.00
2023-04-02T13:31:54.186Z,9.70
2023-04-02T13:34:22.752Z,10.20
2023-04-02T13:36:57.294Z,10.10
2023-04-02T13:39:25.563Z,10.40
2023-04-02T13:41:58.550Z,10.40
2023-04-02T13:44:28.324Z,11.00
2023-04-02T13:46:56.899Z,10.70
2023-04-02T13:49:26.390Z,11.00
2023-04-02T13:51:58.813Z,9.80
2023-04-02T13:54:35.062Z,9.60
2023-04-02T13:57:03.454Z,10.50
2023-04-02T13:59:32.028Z,10.20
2023-04-02T14:02:07.238Z,9.90
2023-04-02T14:04:39.391Z,10.20
2023-04-02T14:07:26.335Z,9.50
2023-04-02T14:10:11.343Z,9.70
2023-04-02T14:12:50.449Z,9.70
2023-04-02T14:15:40.544Z,9.00
2023-04-02T14:18:41.421Z,9.60
2023-04-02T14:21:12.500Z,8.70
2023-04-02T14:24:16.231Z,9.80
2023-04-02T14:27:07.574Z,8.60
2023-04-02T14:29:46.239Z,9.40
2023-04-02T14:32:27.364Z,9.00
2023-04-02T14:35:17.329Z,9.50
2023-04-02T14:38:06.693Z,9.50
2023-04-02T14:40:46.513Z,9.80
2023-04-02T14:43:25.270Z,10.20
2023-04-02T14:46:01.804Z,9.50
2023-04-02T14:48:48.917Z,10.60
2023-04-02T14:51:25.414Z,9.90
2023-04-02T14:54:06.598Z,10.90
2023-04-02T14:56:39.539Z,11.20
2023-04-02T14:59:33.532Z,12.00
2023-04-02T15:02:16.862Z,11.40
2023-04-02T15:05:10.116Z,11.60
2023-04-02T15:11:18.483Z,10.90
2023-04-02T15:14:03.219Z,11.00
2023-04-02T15:19:49.163Z,11.70
2023-04-02T15:23:33.242Z,11.10
2023-04-02T15:30:18.859Z,11.20
2023-04-02T15:32:49.095Z,10.50
2023-04-02T15:35:27.404Z,10.10
2023-04-02T15:38:13.450Z,10.60
2023-04-02T15:41:08.835Z,9.40
2023-04-02T15:43:56.860Z,9.90
2023-04-02T15:47:00.433Z,10.20
2023-04-02T15:49:41.279Z,10.40
2023-04-02T15:52:11.576Z,11.10
2023-04-02T15:54:49.432Z,10.50
2023-04-02T15:57:26.996Z,11.80
2023-04-02T16:00:17.209Z,10.50
2023-04-02T16:03:27.947Z,11.40
2023-04-02T16:06:11.006Z,11.00
2023-04-02T16:08:39.845Z,9.70
2023-04-02T16:11:12.663Z,10.70
2023-04-02T16:13:44.577Z,11.40
2023-04-02T16:16:34.997Z,10.80
2023-04-02T16:19:24.618Z,11.20
2023-04-02T16:22:21.535Z,10.70
2023-04-02T16:24:53.559Z,11.60
2023-04-02T16:27:27.605Z,10.60
2023-04-02T16:30:17.302Z,11.60
2023-04-02T16:33:02.936Z,11.40
2023-04-02T16:36:13.228Z,13.50
2023-04-02T16:38:57.720Z,11.70
2023-04-02T16:41:44.730Z,12.50
2023-04-02T16:44:32.316Z,12.90
2023-04-02T16:47:24.419Z,11.30
2023-04-02T16:50:30.130Z,12.10
2023-04-02T16:53:08.139Z,11.20
2023-04-02T16:55:46.417Z,12.80
2023-04-02T16:58:43.786Z,12.20
2023-04-02T17:01:30.849Z,11.00
2023-04-02T17:04:16.035Z,11.20
2023-04-02T17:07:07.426Z,11.30
2023-04-02T17:09:51.649Z,13.00
2023-04-02T17:12:23.802Z,16.10
2023-04-02T17:14:58.842Z,13.80
2023-04-02T17:17:26.988Z,15.40
2023-04-02T17:20:00.720Z,14.20
2023-04-02T17:22:29.240Z,13.20
2023-04-02T17:24:58.598Z,14.20
2023-04-02T17:27:37.794Z,12.40
2023-04-02T17:30:24.674Z,13.70
2023-04-02T17:32:55.347Z,13.90
2023-04-02T17:35:34.179Z,12.60
2023-04-02T17:38:23.719Z,12.70
2023-04-02T17:41:02.229Z,10.70
2023-04-02T17:43:58.634Z,10.40
2023-04-02T17:46:37.860Z,11.40
2023-04-02T17:49:33.503Z,10.00
2023-04-02T17:52:06.940Z,11.00
2023-04-02T17:54:50.416Z,11.10
2023-04-02T17:57:32.230Z,10.20
2023-04-02T18:00:09.798Z,10.20
2023-04-02T18:03:18.746Z,10.30
2023-04-02T18:06:07.257Z,9.70
2023-04-02T18:08:54.723Z,9.90
2023-04-02T18:11:36.113Z,13.60
2023-04-02T18:14:34.568Z,12.40
2023-04-02T18:17:14.962Z,12.70
2023-04-02T18:19:50.902Z,12.70
2023-04-02T18:22:38.420Z,12.10
2023-04-02T18:25:30.920Z,12.10
2023-04-02T18:28:27.071Z,12.60
2023-04-02T18:30:59.981Z,14.70
2023-04-02T18:33:57.006Z,10.80
2023-04-02T18:36:46.607Z,11.10
2023-04-02T18:39:23.706Z,9.50
2023-04-02T18:42:30.769Z,8.20
2023-04-02T18:45:00.230Z,8.20
2023-04-02T18:47:42.086Z,7.80
2023-04-02T18:50:17.508Z,7.30
2023-04-02T18:52:46.005Z,7.50
2023-04-02T18:55:14.112Z,6.80
2023-04-02T18:57:42.593Z,6.00
2023-04-02T19:00:44.324Z,6.60
2023-04-02T19:03:18.636Z,5.90
2023-04-02T19:05:51.572Z,5.00
2023-04-02T19:08:28.350Z,3.90
2023-04-02T19:11:28.728Z,5.50
2023-04-02T19:14:00.998Z,5.00
2023-04-02T19:16:54.841Z,5.60
2023-04-02T19:19:27.202Z,5.30
2023-04-02T19:22:16.935Z,5.60
2023-04-02T19:25:00.203Z,5.60
2023-04-02T19:27:37.131Z,5.40
2023-04-02T19:30:26.964Z,5.40
2023-04-02T19:33:18.809Z,5.70
2023-04-02T19:36:20.078Z,6.00
2023-04-02T19:39:12.592Z,6.70
2023-04-02T19:41:54.236Z,5.90
2023-04-02T19:44:22.493Z,6.50
2023-04-02T19:46:51.849Z,6.60
2023-04-02T19:49:30.931Z,6.30
2023-04-02T19:51:59.201Z,6.20
2023-04-02T19:54:27.485Z,6.00
2023-04-02T19:56:55.725Z,6.40
2023-04-02T19:59:25.502Z,6.20
2023-04-02T20:01:53.935Z,6.20
2023-04-02T20:04:22.075Z,5.90
2023-04-02T20:06:54.568Z,6.30
2023-04-02T20:09:23.632Z,6.00
2023-04-02T20:11:51.856Z,5.60
2023-04-02T20:14:21.482Z,6.20
2023-04-02T20:16:50.053Z,6.60
2023-04-02T20:19:18.184Z,6.30
2023-04-02T20:21:49.403Z,5.70
2023-04-02T20:24:17.829Z,6.00
2023-04-02T20:26:46.018Z,6.20
2023-04-02T20:29:14.350Z,6.40
2023-04-02T20:31:42.818Z,6.90
2023-04-02T20:34:11.111Z,7.70
2023-04-02T20:36:40.440Z,8.00
2023-04-02T20:39:09.230Z,7.80
2023-04-02T20:41:37.714Z,7.60
2023-04-02T20:44:09.570Z,7.80
2023-04-02T20:46:38.052Z,8.60
2023-04-02T20:49:06.341Z,8.90
2023-04-02T20:51:35.412Z,9.70
2023-04-02T20:54:04.356Z,9.70
2023-04-02T20:56:37.702Z,8.30
2023-04-02T20:59:07.357Z,9.60
2023-04-02T21:01:36.114Z,8.50
2023-04-02T21:04:04.660Z,8.60
2023-04-02T21:06:35.085Z,8.30
2023-04-02T21:09:07.715Z,8.40
2023-04-02T21:11:36.936Z,8.10
2023-04-02T21:14:05.600Z,7.40
2023-04-02T21:16:34.088Z,7.00
2023-04-02T21:19:04.469Z,7.00
2023-04-02T21:21:33.185Z,6.80
2023-04-02T21:24:06.102Z,6.10
2023-04-02T21:26:36.482Z,6.30
2023-04-02T21:29:05.509Z,6.30
2023-04-02T21:31:35.754Z,6.80
2023-04-02T21:34:04.638Z,6.10
2023-04-02T21:36:35.141Z,5.90
2023-04-02T21:39:06.679Z,5.20
2023-04-02T21:41:41.175Z,5.50
2023-04-02T21:44:12.468Z,5.80
2023-04-02T21:46:44.219Z,6.80
2023-04-02T21:49:14.569Z,5.50
2023-04-02T21:51:43.269Z,5.10
2023-04-02T21:54:11.593Z,5.80
2023-04-02T21:56:44.258Z,6.00
2023-04-02T21:59:13.812Z,4.80
2023-04-02T22:01:44.032Z,5.70
2023-04-02T22:04:18.467Z,6.10
2023-04-02T22:06:46.793Z,6.80
2023-04-02T22:09:17.044Z,6.50
2023-04-02T22:11:50.848Z,6.00
2023-04-02T22:14:18.994Z,6.40
2023-04-02T22:16:47.193Z,5.30
2023-04-02T22:19:21.613Z,5.20
2023-04-02T22:21:50.684Z,5.20
2023-04-02T22:24:27.232Z,4.70
2023-04-02T22:26:55.609Z,4.90
2023-04-02T22:29:23.886Z,4.90
2023-04-02T22:31:52.012Z,5.10
2023-04-02T22:34:21.075Z,4.10
2023-04-02T22:36:49.145Z,4.00
2023-04-02T22:39:17.468Z,4.10
2023-04-02T22:41:46.236Z,4.20
2023-04-02T22:44:15.423Z,4.20
2023-04-02T22:46:43.724Z,4.00
2023-04-02T22:49:11.954Z,3.90
2023-04-02T22:51:40.173Z,3.90
2023-04-02T22:54:08.703Z,3.60
2023-04-02T22:56:37.663Z,3.70
2023-04-02T22:59:06.007Z,4.30
2023-04-02T23:01:35.004Z,4.20
2023-04-02T23:04:05.176Z,4.10
2023-04-02T23:06:35.078Z,4.10
2023-04-02T23:09:04.217Z,3.80
2023-04-02T23:11:35.565Z,4.30
2023-04-02T23:14:03.741Z,3.80
2023-04-02T23:16:31.931Z,3.80
2023-04-02T23:19:00.588Z,4.20
2023-04-02T23:21:29.366Z,4.00
2023-04-02T23:23:57.547Z,3.70
2023-04-02T23:26:31.467Z,4.20
2023-04-02T23:28:59.776Z,3.60
2023-04-02T23:31:28.025Z,4.00
2023-04-02T23:33:56.291Z,3.40
2023-04-02T23:36:26.251Z,4.20
2023-04-02T23:38:56.914Z,4.10
2023-04-02T23:41:27.007Z,4.70
2023-04-02T23:43:55.980Z,4.20
2023-04-02T23:46:24.801Z,4.30
2023-04-02T23:48:53.442Z,4.50
2023-04-02T23:51:22.166Z,3.90
2023-04-02T23:53:50.814Z,3.80
2023-04-02T23:56:21.736Z,4.40
2023-04-02T23:58:50.441Z,4.60
